sensor_id;sensor_type;location;lat;lon;timestamp;pressure;altitude;pressure_sealevel;temperature;humidity
59170;BME280;52474;52.236;5.114;2022-09-01T00:01:56;102256.97;;;15.00;100.00
59170;BME280;52474;52.236;5.114;2022-09-01T00:04:23;102254.31;;;15.00;100.00
59170;BME280;52474;52.236;5.114;2022-09-01T00:06:51;102246.94;;;14.93;100.00
59170;BME280;52474;52.236;5.114;2022-09-01T00:09:19;102250.13;;;14.87;100.00
59170;BME280;52474;52.236;5.114;2022-09-01T00:11:47;102245.63;;;14.87;100.00
59170;BME280;52474;52.236;5.114;2022-09-01T00:14:13;102244.06;;;14.85;100.00
59170;BME280;52474;52.236;5.114;2022-09-01T00:16:39;102246.72;;;14.85;100.00
59170;BME280;52474;52.236;5.114;2022-09-01T00:19:05;102252.91;;;14.85;100.00
59170;BME280;52474;52.236;5.114;2022-09-01T00:21:32;102241.63;;;14.81;100.00
59170;BME280;52474;52.236;5.114;2022-09-01T00:23:58;102246.00;;;14.82;100.00
59170;BME280;52474;52.236;5.114;2022-09-01T00:26:24;102238.47;;;14.76;100.00
59170;BME280;52474;52.236;5.114;2022-09-01T00:28:49;102249.56;;;14.72;100.00
59170;BME280;52474;52.236;5.114;2022-09-01T00:31:15;102236.44;;;14.69;100.00
59170;BME280;52474;52.236;5.114;2022-09-01T00:33:41;102241.03;;;14.67;100.00
59170;BME280;52474;52.236;5.114;2022-09-01T00:36:07;102238.78;;;14.62;100.00
59170;BME280;52474;52.236;5.114;2022-09-01T00:38:33;102243.25;;;14.62;100.00
59170;BME280;52474;52.236;5.114;2022-09-01T00:40:59;102243.50;;;14.58;100.00
59170;BME280;52474;52.236;5.114;2022-09-01T00:43:44;102243.75;;;14.55;100.00
59170;BME280;52474;52.236;5.114;2022-09-01T00:46:15;102235.84;;;14.54;100.00
59170;BME280;52474;52.236;5.114;2022-09-01T00:48:41;102229.91;;;14.50;100.00
59170;BME280;52474;52.236;5.114;2022-09-01T00:51:08;102236.06;;;14.51;100.00
59170;BME280;52474;52.236;5.114;2022-09-01T00:53:34;102232.94;;;14.46;100.00
59170;BME280;52474;52.236;5.114;2022-09-01T00:56:00;102240.44;;;14.41;100.00
59170;BME280;52474;52.236;5.114;2022-09-01T00:58:26;102230.75;;;14.39;100.00
59170;BME280;52474;52.236;5.114;2022-09-01T01:00:53;102234.38;;;14.38;100.00
59170;BME280;52474;52.236;5.114;2022-09-01T01:03:19;102233.19;;;14.31;100.00
59170;BME280;52474;52.236;5.114;2022-09-01T01:05:48;102223.25;;;14.33;100.00
59170;BME280;52474;52.236;5.114;2022-09-01T01:08:21;102232.94;;;14.34;100.00
59170;BME280;52474;52.236;5.114;2022-09-01T01:10:55;102224.59;;;14.28;100.00
59170;BME280;52474;52.236;5.114;2022-09-01T01:13:21;102225.53;;;14.27;100.00
59170;BME280;52474;52.236;5.114;2022-09-01T01:15:50;102225.69;;;14.25;100.00
59170;BME280;52474;52.236;5.114;2022-09-01T01:18:16;102226.78;;;14.23;100.00
59170;BME280;52474;52.236;5.114;2022-09-01T01:20:41;102222.41;;;14.22;100.00
59170;BME280;52474;52.236;5.114;2022-09-01T01:25:56;102208.84;;;14.13;100.00
59170;BME280;52474;52.236;5.114;2022-09-01T01:28:27;102206.03;;;14.15;100.00
59170;BME280;52474;52.236;5.114;2022-09-01T01:30:58;102217.66;;;14.14;100.00
59170;BME280;52474;52.236;5.114;2022-09-01T01:33:35;102215.25;;;14.11;100.00
59170;BME280;52474;52.236;5.114;2022-09-01T01:36:07;102211.13;;;14.07;100.00
59170;BME280;52474;52.236;5.114;2022-09-01T01:38:41;102215.72;;;14.05;100.00
59170;BME280;52474;52.236;5.114;2022-09-01T01:41:09;102218.63;;;14.02;100.00
59170;BME280;52474;52.236;5.114;2022-09-01T01:43:35;102215.88;;;14.03;100.00
59170;BME280;52474;52.236;5.114;2022-09-01T01:46:02;102210.88;;;13.99;100.00
59170;BME280;52474;52.236;5.114;2022-09-01T01:48:35;102211.34;;;13.92;100.00
59170;BME280;52474;52.236;5.114;2022-09-01T01:51:02;102218.59;;;13.90;100.00
59170;BME280;52474;52.236;5.114;2022-09-01T01:53:29;102215.84;;;13.92;100.00
59170;BME280;52474;52.236;5.114;2022-09-01T01:55:56;102214.00;;;13.92;100.00
59170;BME280;52474;52.236;5.114;2022-09-01T01:58:28;102221.53;;;13.87;100.00
59170;BME280;52474;52.236;5.114;2022-09-01T02:00:55;102221.03;;;13.82;100.00
59170;BME280;52474;52.236;5.114;2022-09-01T02:03:23;102220.28;;;13.80;100.00
59170;BME280;52474;52.236;5.114;2022-09-01T02:05:51;102216.06;;;13.78;100.00
59170;BME280;52474;52.236;5.114;2022-09-01T02:08:19;102214.38;;;13.77;100.00
59170;BME280;52474;52.236;5.114;2022-09-01T02:10:48;102225.03;;;13.77;100.00
59170;BME280;52474;52.236;5.114;2022-09-01T02:13:16;102221.25;;;13.68;100.00
59170;BME280;52474;52.236;5.114;2022-09-01T02:15:47;102216.16;;;13.65;100.00
59170;BME280;52474;52.236;5.114;2022-09-01T02:18:26;102217.00;;;13.65;100.00
59170;BME280;52474;52.236;5.114;2022-09-01T02:20:56;102211.91;;;13.62;100.00
59170;BME280;52474;52.236;5.114;2022-09-01T02:23:25;102216.63;;;13.59;100.00
59170;BME280;52474;52.236;5.114;2022-09-01T02:25:56;102218.56;;;13.57;100.00
59170;BME280;52474;52.236;5.114;2022-09-01T02:28:22;102217.09;;;13.52;100.00
59170;BME280;52474;52.236;5.114;2022-09-01T02:30:49;102216.25;;;13.52;100.00
59170;BME280;52474;52.236;5.114;2022-09-01T02:33:20;102222.66;;;13.49;100.00
59170;BME280;52474;52.236;5.114;2022-09-01T02:35:49;102217.56;;;13.46;100.00
59170;BME280;52474;52.236;5.114;2022-09-01T02:38:15;102216.84;;;13.44;100.00
59170;BME280;52474;52.236;5.114;2022-09-01T02:40:43;102222.38;;;13.41;100.00
59170;BME280;52474;52.236;5.114;2022-09-01T02:43:12;102210.03;;;13.40;100.00
59170;BME280;52474;52.236;5.114;2022-09-01T02:45:38;102220.56;;;13.42;100.00
59170;BME280;52474;52.236;5.114;2022-09-01T02:48:05;102217.19;;;13.40;100.00
59170;BME280;52474;52.236;5.114;2022-09-01T02:50:38;102217.03;;;13.41;100.00
59170;BME280;52474;52.236;5.114;2022-09-01T02:53:06;102216.34;;;13.39;100.00
59170;BME280;52474;52.236;5.114;2022-09-01T02:55:38;102217.03;;;13.41;100.00
59170;BME280;52474;52.236;5.114;2022-09-01T02:58:04;102211.00;;;13.39;100.00
59170;BME280;52474;52.236;5.114;2022-09-01T03:00:30;102205.19;;;13.34;100.00
59170;BME280;52474;52.236;5.114;2022-09-01T03:03:00;102190.81;;;13.24;100.00
59170;BME280;52474;52.236;5.114;2022-09-01T03:05:27;102202.13;;;13.27;100.00
59170;BME280;52474;52.236;5.114;2022-09-01T03:07:58;102199.69;;;13.24;100.00
59170;BME280;52474;52.236;5.114;2022-09-01T03:10:29;102202.44;;;13.23;100.00
59170;BME280;52474;52.236;5.114;2022-09-01T03:12:58;102197.97;;;13.23;100.00
59170;BME280;52474;52.236;5.114;2022-09-01T03:15:25;102191.81;;;13.23;100.00
59170;BME280;52474;52.236;5.114;2022-09-01T03:17:51;102203.19;;;13.25;100.00
59170;BME280;52474;52.236;5.114;2022-09-01T03:20:17;102196.81;;;13.27;100.00
59170;BME280;52474;52.236;5.114;2022-09-01T03:22:46;102199.69;;;13.24;100.00
59170;BME280;52474;52.236;5.114;2022-09-01T03:25:12;102196.28;;;13.22;100.00
59170;BME280;52474;52.236;5.114;2022-09-01T03:27:37;102192.78;;;13.22;100.00
59170;BME280;52474;52.236;5.114;2022-09-01T03:30:03;102198.72;;;13.25;100.00
59170;BME280;52474;52.236;5.114;2022-09-01T03:32:29;102194.91;;;13.29;100.00
59170;BME280;52474;52.236;5.114;2022-09-01T03:34:55;102192.78;;;13.22;100.00
59170;BME280;52474;52.236;5.114;2022-09-01T03:37:21;102188.16;;;13.24;100.00
59170;BME280;52474;52.236;5.114;2022-09-01T03:39:47;102189.03;;;13.24;100.00
59170;BME280;52474;52.236;5.114;2022-09-01T03:42:13;102184.06;;;13.20;100.00
59170;BME280;52474;52.236;5.114;2022-09-01T03:44:50;102177.03;;;13.19;100.00
59170;BME280;52474;52.236;5.114;2022-09-01T03:47:18;102182.47;;;13.17;100.00
59170;BME280;52474;52.236;5.114;2022-09-01T03:49:46;102180.78;;;13.16;100.00
59170;BME280;52474;52.236;5.114;2022-09-01T03:52:14;102169.06;;;13.19;100.00
59170;BME280;52474;52.236;5.114;2022-09-01T03:54:42;102176.19;;;13.18;100.00
59170;BME280;52474;52.236;5.114;2022-09-01T03:57:08;102176.28;;;13.17;100.00
59170;BME280;52474;52.236;5.114;2022-09-01T03:59:35;102181.84;;;13.14;100.00
59170;BME280;52474;52.236;5.114;2022-09-01T04:02:09;102176.53;;;13.14;100.00
59170;BME280;52474;52.236;5.114;2022-09-01T04:04:35;102177.50;;;13.13;100.00
59170;BME280;52474;52.236;5.114;2022-09-01T04:07:01;102172.91;;;13.15;100.00
59170;BME280;52474;52.236;5.114;2022-09-01T04:09:29;102175.78;;;13.11;100.00
59170;BME280;52474;52.236;5.114;2022-09-01T04:11:56;102179.19;;;13.14;100.00
59170;BME280;52474;52.236;5.114;2022-09-01T04:14:22;102169.63;;;13.11;100.00
59170;BME280;52474;52.236;5.114;2022-09-01T04:16:49;102173.88;;;13.14;100.00
59170;BME280;52474;52.236;5.114;2022-09-01T04:19:34;102172.19;;;13.13;100.00
59170;BME280;52474;52.236;5.114;2022-09-01T04:22:01;102168.78;;;13.10;100.00
59170;BME280;52474;52.236;5.114;2022-09-01T04:24:32;102176.75;;;13.10;100.00
59170;BME280;52474;52.236;5.114;2022-09-01T04:26:59;102173.25;;;13.10;100.00
59170;BME280;52474;52.236;5.114;2022-09-01T04:29:27;102177.00;;;13.07;100.00
59170;BME280;52474;52.236;5.114;2022-09-01T04:32:07;102170.22;;;13.03;100.00
59170;BME280;52474;52.236;5.114;2022-09-01T04:34:38;102177.25;;;13.04;100.00
59170;BME280;52474;52.236;5.114;2022-09-01T04:37:16;102177.56;;;13.00;100.00
59170;BME280;52474;52.236;5.114;2022-09-01T04:39:49;102169.69;;;12.98;100.00
59170;BME280;52474;52.236;5.114;2022-09-01T04:42:17;102178.53;;;12.99;100.00
59170;BME280;52474;52.236;5.114;2022-09-01T04:44:45;102179.50;;;12.98;100.00
59170;BME280;52474;52.236;5.114;2022-09-01T04:47:11;102176.19;;;12.94;100.00
59170;BME280;52474;52.236;5.114;2022-09-01T04:49:40;102178.25;;;12.91;100.00
59170;BME280;52474;52.236;5.114;2022-09-01T04:52:06;102177.63;;;12.87;100.00
59170;BME280;52474;52.236;5.114;2022-09-01T04:54:32;102176.78;;;12.86;100.00
59170;BME280;52474;52.236;5.114;2022-09-01T04:57:00;102174.97;;;12.87;100.00
59170;BME280;52474;52.236;5.114;2022-09-01T04:59:27;102179.19;;;12.89;100.00
59170;BME280;52474;52.236;5.114;2022-09-01T05:01:58;102184.19;;;12.94;100.00
59170;BME280;52474;52.236;5.114;2022-09-01T05:04:26;102182.59;;;12.92;100.00
59170;BME280;52474;52.236;5.114;2022-09-01T05:06:53;102183.47;;;12.92;100.00
59170;BME280;52474;52.236;5.114;2022-09-01T05:09:27;102179.72;;;12.95;100.00
59170;BME280;52474;52.236;5.114;2022-09-01T05:12:01;102172.59;;;12.95;100.00
59170;BME280;52474;52.236;5.114;2022-09-01T05:14:37;102179.38;;;12.99;100.00
59170;BME280;52474;52.236;5.114;2022-09-01T05:17:04;102176.59;;;13.01;100.00
59170;BME280;52474;52.236;5.114;2022-09-01T05:19:41;102184.59;;;13.01;100.00
59170;BME280;52474;52.236;5.114;2022-09-01T05:22:08;102188.09;;;13.01;100.00
59170;BME280;52474;52.236;5.114;2022-09-01T05:24:36;102179.16;;;13.02;100.00
59170;BME280;52474;52.236;5.114;2022-09-01T05:27:04;102185.22;;;13.04;100.00
59170;BME280;52474;52.236;5.114;2022-09-01T05:29:33;102183.25;;;13.06;100.00
59170;BME280;52474;52.236;5.114;2022-09-01T05:32:04;102184.00;;;13.08;100.00
59170;BME280;52474;52.236;5.114;2022-09-01T05:34:36;102177.50;;;13.13;100.00
59170;BME280;52474;52.236;5.114;2022-09-01T05:37:04;102181.75;;;13.15;100.00
59170;BME280;52474;52.236;5.114;2022-09-01T05:39:31;102185.00;;;13.19;100.00
59170;BME280;52474;52.236;5.114;2022-09-01T05:41:58;102178.59;;;13.21;100.00
59170;BME280;52474;52.236;5.114;2022-09-01T05:44:23;102179.25;;;13.25;100.00
59170;BME280;52474;52.236;5.114;2022-09-01T05:46:51;102177.34;;;13.27;100.00
59170;BME280;52474;52.236;5.114;2022-09-01T05:49:18;102178.44;;;13.36;100.00
59170;BME280;52474;52.236;5.114;2022-09-01T05:51:47;102178.94;;;13.41;100.00
59170;BME280;52474;52.236;5.114;2022-09-01T05:54:20;102185.75;;;13.45;100.00
59170;BME280;52474;52.236;5.114;2022-09-01T05:56:49;102187.91;;;13.51;100.00
59170;BME280;52474;52.236;5.114;2022-09-01T05:59:20;102183.72;;;13.60;100.00
59170;BME280;52474;52.236;5.114;2022-09-01T06:01:48;102193.19;;;13.64;100.00
59170;BME280;52474;52.236;5.114;2022-09-01T06:04:14;102193.66;;;13.69;100.00
59170;BME280;52474;52.236;5.114;2022-09-01T06:06:42;102186.03;;;13.75;100.00
59170;BME280;52474;52.236;5.114;2022-09-01T06:09:14;102193.44;;;13.83;100.00
59170;BME280;52474;52.236;5.114;2022-09-01T06:11:44;102193.06;;;13.88;100.00
59170;BME280;52474;52.236;5.114;2022-09-01T06:14:15;102191.63;;;13.95;100.00
59170;BME280;52474;52.236;5.114;2022-09-01T06:16:42;102181.44;;;14.00;100.00
59170;BME280;52474;52.236;5.114;2022-09-01T06:19:10;102183.53;;;14.08;100.00
59170;BME280;52474;52.236;5.114;2022-09-01T06:21:39;102188.63;;;14.11;100.00
59170;BME280;52474;52.236;5.114;2022-09-01T06:24:05;102185.81;;;14.12;100.00
59170;BME280;52474;52.236;5.114;2022-09-01T06:26:32;102174.31;;;14.12;100.00
59170;BME280;52474;52.236;5.114;2022-09-01T06:29:01;102182.94;;;14.15;100.00
59170;BME280;52474;52.236;5.114;2022-09-01T06:31:29;102184.34;;;14.20;100.00
59170;BME280;52474;52.236;5.114;2022-09-01T06:34:02;102182.19;;;14.25;100.00
59170;BME280;52474;52.236;5.114;2022-09-01T06:36:30;102187.75;;;14.33;100.00
59170;BME280;52474;52.236;5.114;2022-09-01T06:39:01;102190.75;;;14.39;100.00
59170;BME280;52474;52.236;5.114;2022-09-01T06:41:29;102187.72;;;14.44;100.00
59170;BME280;52474;52.236;5.114;2022-09-01T06:43:56;102185.53;;;14.49;100.00
59170;BME280;52474;52.236;5.114;2022-09-01T06:46:22;102192.94;;;14.57;100.00
59170;BME280;52474;52.236;5.114;2022-09-01T06:48:50;102192.22;;;14.66;100.00
59170;BME280;52474;52.236;5.114;2022-09-01T06:51:19;102191.72;;;14.72;100.00
59170;BME280;52474;52.236;5.114;2022-09-01T06:53:49;102193.63;;;14.81;100.00
59170;BME280;52474;52.236;5.114;2022-09-01T06:56:17;102185.59;;;14.93;100.00
59170;BME280;52474;52.236;5.114;2022-09-01T06:58:44;102203.88;;;14.97;100.00
59170;BME280;52474;52.236;5.114;2022-09-01T07:01:13;102199.59;;;15.06;100.00
59170;BME280;52474;52.236;5.114;2022-09-01T07:03:40;102206.13;;;15.13;100.00
59170;BME280;52474;52.236;5.114;2022-09-01T07:06:15;102204.41;;;15.23;100.00
59170;BME280;52474;52.236;5.114;2022-09-01T07:09:00;102210.78;;;15.32;100.00
59170;BME280;52474;52.236;5.114;2022-09-01T07:11:30;102207.34;;;15.41;100.00
59170;BME280;52474;52.236;5.114;2022-09-01T07:13:59;102197.97;;;15.47;100.00
59170;BME280;52474;52.236;5.114;2022-09-01T07:16:27;102199.69;;;15.58;100.00
59170;BME280;52474;52.236;5.114;2022-09-01T07:18:54;102204.63;;;15.74;100.00
59170;BME280;52474;52.236;5.114;2022-09-01T07:21:23;102199.66;;;15.90;100.00
59170;BME280;52474;52.236;5.114;2022-09-01T07:23:49;102207.31;;;16.04;100.00
59170;BME280;52474;52.236;5.114;2022-09-01T07:26:16;102204.16;;;16.20;100.00
59170;BME280;52474;52.236;5.114;2022-09-01T07:28:45;102208.06;;;16.47;100.00
59170;BME280;52474;52.236;5.114;2022-09-01T07:31:19;102192.56;;;21.54;100.00
59170;BME280;52474;52.236;5.114;2022-09-01T07:33:46;102198.63;;;25.63;81.80
59170;BME280;52474;52.236;5.114;2022-09-01T07:36:14;102197.72;;;27.80;73.40
59170;BME280;52474;52.236;5.114;2022-09-01T07:38:40;102190.00;;;28.80;65.62
59170;BME280;52474;52.236;5.114;2022-09-01T07:41:08;102192.78;;;29.30;62.86
59170;BME280;52474;52.236;5.114;2022-09-01T07:43:46;102200.81;;;26.70;66.12
59170;BME280;52474;52.236;5.114;2022-09-01T07:46:35;102192.44;;;29.89;60.14
59170;BME280;52474;52.236;5.114;2022-09-01T07:49:01;102187.84;;;30.20;57.71
59170;BME280;52474;52.236;5.114;2022-09-01T07:51:28;102194.84;;;30.64;54.95
59170;BME280;52474;52.236;5.114;2022-09-01T07:53:54;102193.84;;;31.42;52.04
59170;BME280;52474;52.236;5.114;2022-09-01T07:56:22;102188.78;;;32.10;49.76
59170;BME280;52474;52.236;5.114;2022-09-01T07:58:49;102189.84;;;32.09;48.30
59170;BME280;52474;52.236;5.114;2022-09-01T08:01:17;102189.16;;;32.42;46.38
59170;BME280;52474;52.236;5.114;2022-09-01T08:03:45;102179.38;;;33.09;45.78
59170;BME280;52474;52.236;5.114;2022-09-01T08:06:13;102192.97;;;33.54;44.04
59170;BME280;52474;52.236;5.114;2022-09-01T08:08:39;102185.63;;;33.77;43.59
59170;BME280;52474;52.236;5.114;2022-09-01T08:11:06;102192.25;;;34.47;43.25
59170;BME280;52474;52.236;5.114;2022-09-01T08:13:34;102194.97;;;34.69;40.15
59170;BME280;52474;52.236;5.114;2022-09-01T08:16:04;102193.19;;;34.90;40.28
59170;BME280;52474;52.236;5.114;2022-09-01T08:18:31;102190.91;;;35.09;37.59
59170;BME280;52474;52.236;5.114;2022-09-01T08:20:57;102193.44;;;34.29;38.71
59170;BME280;52474;52.236;5.114;2022-09-01T08:23:35;102189.72;;;35.00;38.10
59170;BME280;52474;52.236;5.114;2022-09-01T08:26:21;102186.88;;;36.32;36.80
59170;BME280;52474;52.236;5.114;2022-09-01T08:28:47;102190.28;;;35.39;37.26
59170;BME280;52474;52.236;5.114;2022-09-01T08:31:14;102196.63;;;36.61;35.39
59170;BME280;52474;52.236;5.114;2022-09-01T08:33:41;102191.41;;;36.95;34.60
59170;BME280;52474;52.236;5.114;2022-09-01T08:36:08;102192.66;;;36.21;33.48
59170;BME280;52474;52.236;5.114;2022-09-01T08:38:35;102192.69;;;36.36;33.03
59170;BME280;52474;52.236;5.114;2022-09-01T08:41:01;102194.97;;;36.65;34.46
59170;BME280;52474;52.236;5.114;2022-09-01T08:46:01;102183.69;;;37.07;33.08
59170;BME280;52474;52.236;5.114;2022-09-01T08:48:39;102187.19;;;37.59;32.10
59170;BME280;52474;52.236;5.114;2022-09-01T08:51:12;102182.53;;;38.59;31.25
59170;BME280;52474;52.236;5.114;2022-09-01T08:54:00;102185.28;;;38.98;29.14
59170;BME280;52474;52.236;5.114;2022-09-01T08:56:27;102185.50;;;38.73;28.94
59170;BME280;52474;52.236;5.114;2022-09-01T08:58:54;102176.13;;;37.44;28.99
59170;BME280;52474;52.236;5.114;2022-09-01T09:04:39;102175.19;;;38.39;27.80
59170;BME280;52474;52.236;5.114;2022-09-01T09:13:02;102172.97;;;38.80;26.68
59170;BME280;52474;52.236;5.114;2022-09-01T09:20:50;102170.09;;;37.52;27.34
59170;BME280;52474;52.236;5.114;2022-09-01T09:23:28;102148.81;;;38.52;26.95
59170;BME280;52474;52.236;5.114;2022-09-01T09:25:55;102160.53;;;40.03;25.54
59170;BME280;52474;52.236;5.114;2022-09-01T09:28:21;102164.66;;;40.06;25.39
59170;BME280;52474;52.236;5.114;2022-09-01T09:30:47;102156.94;;;39.36;25.72
59170;BME280;52474;52.236;5.114;2022-09-01T09:33:32;102158.22;;;38.11;26.38
59170;BME280;52474;52.236;5.114;2022-09-01T09:36:14;102154.25;;;39.98;25.95
59170;BME280;52474;52.236;5.114;2022-09-01T09:38:40;102151.91;;;39.86;24.35
59170;BME280;52474;52.236;5.114;2022-09-01T09:43:34;102146.84;;;39.45;25.13
59170;BME280;52474;52.236;5.114;2022-09-01T09:48:45;102138.91;;;38.80;25.35
59170;BME280;52474;52.236;5.114;2022-09-01T09:51:20;102129.75;;;39.14;24.70
59170;BME280;52474;52.236;5.114;2022-09-01T09:53:47;102127.63;;;37.87;26.32
59170;BME280;52474;52.236;5.114;2022-09-01T09:56:17;102127.63;;;39.54;24.58
59170;BME280;52474;52.236;5.114;2022-09-01T09:58:44;102133.50;;;39.71;24.34
59170;BME280;52474;52.236;5.114;2022-09-01T10:01:27;102129.06;;;39.70;23.88
59170;BME280;52474;52.236;5.114;2022-09-01T10:03:54;102124.25;;;40.70;24.17
59170;BME280;52474;52.236;5.114;2022-09-01T10:06:43;102122.50;;;40.23;23.79
59170;BME280;52474;52.236;5.114;2022-09-01T10:11:57;102117.53;;;40.58;21.94
59170;BME280;52474;52.236;5.114;2022-09-01T10:14:25;102117.50;;;40.90;22.27
59170;BME280;52474;52.236;5.114;2022-09-01T10:16:55;102119.09;;;38.68;23.12
59170;BME280;52474;52.236;5.114;2022-09-01T10:19:23;102118.69;;;39.08;22.72
59170;BME280;52474;52.236;5.114;2022-09-01T10:21:51;102107.78;;;38.93;22.75
59170;BME280;52474;52.236;5.114;2022-09-01T10:24:33;102110.84;;;38.23;23.82
59170;BME280;52474;52.236;5.114;2022-09-01T10:27:02;102104.63;;;40.48;22.57
59170;BME280;52474;52.236;5.114;2022-09-01T10:29:31;102120.13;;;39.30;23.42
59170;BME280;52474;52.236;5.114;2022-09-01T10:31:59;102112.19;;;38.65;23.50
59170;BME280;52474;52.236;5.114;2022-09-01T10:34:27;102107.38;;;37.97;23.53
59170;BME280;52474;52.236;5.114;2022-09-01T10:36:56;102102.66;;;37.43;24.91
59170;BME280;52474;52.236;5.114;2022-09-01T10:39:22;102108.13;;;39.11;23.70
59170;BME280;52474;52.236;5.114;2022-09-01T10:44:19;102101.03;;;37.96;24.65
59170;BME280;52474;52.236;5.114;2022-09-01T10:46:45;102104.38;;;37.18;24.35
59170;BME280;52474;52.236;5.114;2022-09-01T10:51:52;102096.91;;;37.99;25.19
59170;BME280;52474;52.236;5.114;2022-09-01T10:59:47;102104.13;;;37.14;24.87
59170;BME280;52474;52.236;5.114;2022-09-01T11:02:14;102097.81;;;36.83;24.51
59170;BME280;52474;52.236;5.114;2022-09-01T11:09:45;102095.03;;;36.47;24.71
59170;BME280;52474;52.236;5.114;2022-09-01T11:17:23;102090.34;;;36.84;25.63
59170;BME280;52474;52.236;5.114;2022-09-01T11:22:19;102091.84;;;37.51;23.85
59170;BME280;52474;52.236;5.114;2022-09-01T11:30:31;102087.22;;;37.36;24.45
59170;BME280;52474;52.236;5.114;2022-09-01T11:33:05;102087.00;;;38.27;23.92
59170;BME280;52474;52.236;5.114;2022-09-01T11:35:33;102079.53;;;37.13;24.61
59170;BME280;52474;52.236;5.114;2022-09-01T11:38:01;102080.03;;;38.00;24.16
59170;BME280;52474;52.236;5.114;2022-09-01T11:40:29;102066.84;;;36.96;24.62
59170;BME280;52474;52.236;5.114;2022-09-01T11:42:55;102074.00;;;37.18;24.08
59170;BME280;52474;52.236;5.114;2022-09-01T11:45:26;102077.63;;;36.93;24.21
59170;BME280;52474;52.236;5.114;2022-09-01T11:47:57;102071.94;;;37.49;23.93
59170;BME280;52474;52.236;5.114;2022-09-01T11:55:40;102067.16;;;36.74;24.12
59170;BME280;52474;52.236;5.114;2022-09-01T11:58:49;102063.06;;;36.57;25.38
59170;BME280;52474;52.236;5.114;2022-09-01T12:01:10;102050.56;;;36.95;23.79
59170;BME280;52474;52.236;5.114;2022-09-01T12:03:36;102058.34;;;36.78;24.34
59170;BME280;52474;52.236;5.114;2022-09-01T12:06:03;102053.06;;;36.86;23.42
59170;BME280;52474;52.236;5.114;2022-09-01T12:08:33;102058.22;;;37.34;23.89
59170;BME280;52474;52.236;5.114;2022-09-01T12:11:05;102051.94;;;37.03;22.90
59170;BME280;52474;52.236;5.114;2022-09-01T12:13:31;102054.78;;;36.31;24.10
59170;BME280;52474;52.236;5.114;2022-09-01T12:16:01;102048.97;;;36.27;23.64
59170;BME280;52474;52.236;5.114;2022-09-01T12:18:35;102052.00;;;36.46;23.57
59170;BME280;52474;52.236;5.114;2022-09-01T12:21:03;102041.72;;;37.03;23.71
59170;BME280;52474;52.236;5.114;2022-09-01T12:23:33;102043.41;;;34.76;24.71
59170;BME280;52474;52.236;5.114;2022-09-01T12:26:00;102041.56;;;34.54;24.88
59170;BME280;52474;52.236;5.114;2022-09-01T12:28:28;102034.06;;;33.41;25.71
59170;BME280;52474;52.236;5.114;2022-09-01T12:30:58;102043.28;;;32.57;27.26
59170;BME280;52474;52.236;5.114;2022-09-01T12:33:24;102047.72;;;31.72;28.65
59170;BME280;52474;52.236;5.114;2022-09-01T12:35:50;102042.44;;;32.11;28.60
59170;BME280;52474;52.236;5.114;2022-09-01T12:40:55;102034.34;;;31.87;28.51
59170;BME280;52474;52.236;5.114;2022-09-01T12:43:31;102025.53;;;31.85;28.69
59170;BME280;52474;52.236;5.114;2022-09-01T12:45:57;102031.13;;;31.79;28.43
59170;BME280;52474;52.236;5.114;2022-09-01T12:48:27;102029.78;;;31.53;29.23
59170;BME280;52474;52.236;5.114;2022-09-01T12:50:54;102021.44;;;31.59;29.94
59170;BME280;52474;52.236;5.114;2022-09-01T12:53:21;102030.81;;;31.11;29.37
59170;BME280;52474;52.236;5.114;2022-09-01T12:55:56;102027.50;;;30.97;29.88
59170;BME280;52474;52.236;5.114;2022-09-01T12:58:24;102022.97;;;31.15;30.23
59170;BME280;52474;52.236;5.114;2022-09-01T13:00:57;102018.16;;;30.39;30.38
59170;BME280;52474;52.236;5.114;2022-09-01T13:03:24;102017.84;;;30.59;31.42
59170;BME280;52474;52.236;5.114;2022-09-01T13:05:59;102020.53;;;29.75;32.71
59170;BME280;52474;52.236;5.114;2022-09-01T13:08:26;102023.59;;;29.98;32.84
59170;BME280;52474;52.236;5.114;2022-09-01T13:10:54;102022.09;;;30.44;32.50
59170;BME280;52474;52.236;5.114;2022-09-01T13:13:21;102011.31;;;30.18;32.69
59170;BME280;52474;52.236;5.114;2022-09-01T13:15:49;102024.91;;;29.46;33.22
59170;BME280;52474;52.236;5.114;2022-09-01T13:18:16;102014.56;;;29.48;32.99
59170;BME280;52474;52.236;5.114;2022-09-01T13:20:42;102008.31;;;29.78;33.34
59170;BME280;52474;52.236;5.114;2022-09-01T13:23:08;102008.00;;;29.56;33.49
59170;BME280;52474;52.236;5.114;2022-09-01T13:25:34;101997.22;;;29.61;33.65
59170;BME280;52474;52.236;5.114;2022-09-01T13:28:00;102004.13;;;29.94;33.77
59170;BME280;52474;52.236;5.114;2022-09-01T13:30:27;102011.59;;;29.87;33.56
59170;BME280;52474;52.236;5.114;2022-09-01T13:32:54;101999.47;;;29.64;33.41
59170;BME280;52474;52.236;5.114;2022-09-01T13:35:20;102007.38;;;29.36;34.67
59170;BME280;52474;52.236;5.114;2022-09-01T13:37:47;101993.97;;;29.16;34.59
59170;BME280;52474;52.236;5.114;2022-09-01T13:40:13;101980.41;;;28.40;34.58
59170;BME280;52474;52.236;5.114;2022-09-01T13:42:42;101977.25;;;28.87;34.76
59170;BME280;52474;52.236;5.114;2022-09-01T13:45:09;101977.72;;;28.84;35.53
59170;BME280;52474;52.236;5.114;2022-09-01T13:47:40;101979.75;;;28.70;35.12
59170;BME280;52474;52.236;5.114;2022-09-01T13:50:07;101982.47;;;28.70;34.81
59170;BME280;52474;52.236;5.114;2022-09-01T13:52:33;101982.22;;;28.53;35.85
59170;BME280;52474;52.236;5.114;2022-09-01T13:54:59;101986.28;;;28.37;35.32
59170;BME280;52474;52.236;5.114;2022-09-01T13:57:25;101985.28;;;28.82;35.43
59170;BME280;52474;52.236;5.114;2022-09-01T13:59:52;101984.72;;;28.23;35.36